sensor_id;sensor_type;location;lat;lon;timestamp;P1;durP1;ratioP1;P2;durP2;ratioP2
15635;SDS011;7917;50.818;6.972;2023-08-06T00:02:08;4.03;;;2.60;;
15635;SDS011;7917;50.818;6.972;2023-08-06T00:04:35;6.03;;;3.08;;
15635;SDS011;7917;50.818;6.972;2023-08-06T00:07:02;8.68;;;3.25;;
15635;SDS011;7917;50.818;6.972;2023-08-06T00:09:30;4.72;;;3.45;;
15635;SDS011;7917;50.818;6.972;2023-08-06T00:11:57;3.92;;;3.00;;
15635;SDS011;7917;50.818;6.972;2023-08-06T00:14:24;5.38;;;3.30;;
15635;SDS011;7917;50.818;6.972;2023-08-06T00:16:52;5.95;;;3.40;;
15635;SDS011;7917;50.818;6.972;2023-08-06T00:19:19;5.05;;;3.25;;
15635;SDS011;7917;50.818;6.972;2023-08-06T00:21:46;4.70;;;3.67;;
15635;SDS011;7917;50.818;6.972;2023-08-06T00:24:13;6.55;;;3.40;;
15635;SDS011;7917;50.818;6.972;2023-08-06T00:26:40;5.55;;;3.53;;
15635;SDS011;7917;50.818;6.972;2023-08-06T00:29:06;6.93;;;3.90;;
15635;SDS011;7917;50.818;6.972;2023-08-06T00:31:34;10.30;;;4.40;;
15635;SDS011;7917;50.818;6.972;2023-08-06T00:34:02;5.80;;;3.60;;
15635;SDS011;7917;50.818;6.972;2023-08-06T00:36:28;5.25;;;4.07;;
15635;SDS011;7917;50.818;6.972;2023-08-06T00:38:56;6.38;;;3.83;;
15635;SDS011;7917;50.818;6.972;2023-08-06T00:41:22;6.28;;;4.40;;
15635;SDS011;7917;50.818;6.972;2023-08-06T00:43:49;9.98;;;4.35;;
15635;SDS011;7917;50.818;6.972;2023-08-06T00:46:17;5.57;;;4.30;;
15635;SDS011;7917;50.818;6.972;2023-08-06T00:48:44;5.40;;;4.00;;
15635;SDS011;7917;50.818;6.972;2023-08-06T00:51:12;6.35;;;4.15;;
15635;SDS011;7917;50.818;6.972;2023-08-06T00:53:40;7.60;;;4.07;;
15635;SDS011;7917;50.818;6.972;2023-08-06T00:56:07;7.20;;;3.92;;
15635;SDS011;7917;50.818;6.972;2023-08-06T00:58:35;5.22;;;4.00;;
15635;SDS011;7917;50.818;6.972;2023-08-06T01:01:03;5.05;;;3.67;;
15635;SDS011;7917;50.818;6.972;2023-08-06T01:03:29;7.22;;;4.30;;
15635;SDS011;7917;50.818;6.972;2023-08-06T01:05:56;8.13;;;4.05;;
15635;SDS011;7917;50.818;6.972;2023-08-06T01:08:28;4.80;;;3.38;;
15635;SDS011;7917;50.818;6.972;2023-08-06T01:11:06;6.78;;;3.55;;
15635;SDS011;7917;50.818;6.972;2023-08-06T01:13:42;5.63;;;3.10;;
15635;SDS011;7917;50.818;6.972;2023-08-06T01:16:13;5.28;;;3.65;;
15635;SDS011;7917;50.818;6.972;2023-08-06T01:18:42;5.78;;;3.15;;
15635;SDS011;7917;50.818;6.972;2023-08-06T01:21:12;6.80;;;3.25;;
15635;SDS011;7917;50.818;6.972;2023-08-06T01:23:39;3.63;;;3.15;;
15635;SDS011;7917;50.818;6.972;2023-08-06T01:26:10;5.88;;;3.60;;
15635;SDS011;7917;50.818;6.972;2023-08-06T01:28:44;8.80;;;3.67;;
15635;SDS011;7917;50.818;6.972;2023-08-06T01:31:15;7.80;;;3.30;;
15635;SDS011;7917;50.818;6.972;2023-08-06T01:33:48;15.57;;;4.35;;
15635;SDS011;7917;50.818;6.972;2023-08-06T01:36:17;5.18;;;3.47;;
15635;SDS011;7917;50.818;6.972;2023-08-06T01:38:45;9.10;;;3.67;;
15635;SDS011;7917;50.818;6.972;2023-08-06T01:41:13;7.38;;;4.28;;
15635;SDS011;7917;50.818;6.972;2023-08-06T01:43:40;6.97;;;4.30;;
15635;SDS011;7917;50.818;6.972;2023-08-06T01:46:07;6.95;;;3.95;;
15635;SDS011;7917;50.818;6.972;2023-08-06T01:48:33;5.05;;;3.63;;
15635;SDS011;7917;50.818;6.972;2023-08-06T01:51:00;4.20;;;3.65;;
15635;SDS011;7917;50.818;6.972;2023-08-06T01:56:19;6.03;;;3.47;;
15635;SDS011;7917;50.818;6.972;2023-08-06T01:58:45;5.07;;;3.92;;
15635;SDS011;7917;50.818;6.972;2023-08-06T02:01:13;8.77;;;3.70;;
15635;SDS011;7917;50.818;6.972;2023-08-06T02:03:39;4.25;;;3.72;;
15635;SDS011;7917;50.818;6.972;2023-08-06T02:06:06;4.80;;;3.47;;
15635;SDS011;7917;50.818;6.972;2023-08-06T02:08:33;7.53;;;3.92;;
15635;SDS011;7917;50.818;6.972;2023-08-06T02:11:00;5.20;;;3.60;;
15635;SDS011;7917;50.818;6.972;2023-08-06T02:13:28;4.95;;;3.40;;
15635;SDS011;7917;50.818;6.972;2023-08-06T02:15:55;7.32;;;3.50;;
15635;SDS011;7917;50.818;6.972;2023-08-06T02:18:21;7.18;;;3.40;;
15635;SDS011;7917;50.818;6.972;2023-08-06T02:20:54;4.40;;;3.58;;
15635;SDS011;7917;50.818;6.972;2023-08-06T02:23:22;8.05;;;3.65;;
15635;SDS011;7917;50.818;6.972;2023-08-06T02:25:56;5.18;;;3.45;;
15635;SDS011;7917;50.818;6.972;2023-08-06T02:28:24;7.57;;;3.10;;
15635;SDS011;7917;50.818;6.972;2023-08-06T02:30:52;3.33;;;3.03;;
15635;SDS011;7917;50.818;6.972;2023-08-06T02:33:19;8.68;;;3.20;;
15635;SDS011;7917;50.818;6.972;2023-08-06T02:35:45;6.55;;;3.38;;
15635;SDS011;7917;50.818;6.972;2023-08-06T02:38:13;3.88;;;3.15;;
15635;SDS011;7917;50.818;6.972;2023-08-06T02:40:42;7.05;;;3.33;;
15635;SDS011;7917;50.818;6.972;2023-08-06T02:43:10;2.85;;;2.38;;
15635;SDS011;7917;50.818;6.972;2023-08-06T02:45:37;5.60;;;3.25;;
15635;SDS011;7917;50.818;6.972;2023-08-06T02:48:04;6.43;;;3.10;;
15635;SDS011;7917;50.818;6.972;2023-08-06T02:50:35;4.78;;;3.25;;
15635;SDS011;7917;50.818;6.972;2023-08-06T02:53:04;6.07;;;3.00;;
15635;SDS011;7917;50.818;6.972;2023-08-06T02:55:32;5.60;;;3.28;;
15635;SDS011;7917;50.818;6.972;2023-08-06T02:57:59;4.72;;;3.22;;
15635;SDS011;7917;50.818;6.972;2023-08-06T03:00:26;6.55;;;3.30;;
15635;SDS011;7917;50.818;6.972;2023-08-06T03:02:55;4.55;;;2.90;;
15635;SDS011;7917;50.818;6.972;2023-08-06T03:05:22;4.85;;;3.33;;
15635;SDS011;7917;50.818;6.972;2023-08-06T03:07:49;4.57;;;3.55;;
15635;SDS011;7917;50.818;6.972;2023-08-06T03:10:16;8.75;;;3.10;;
15635;SDS011;7917;50.818;6.972;2023-08-06T03:12:43;7.47;;;3.53;;
15635;SDS011;7917;50.818;6.972;2023-08-06T03:15:10;4.47;;;3.20;;
15635;SDS011;7917;50.818;6.972;2023-08-06T03:17:38;5.45;;;3.08;;
15635;SDS011;7917;50.818;6.972;2023-08-06T03:20:06;6.97;;;3.28;;
15635;SDS011;7917;50.818;6.972;2023-08-06T03:22:33;4.47;;;3.58;;
15635;SDS011;7917;50.818;6.972;2023-08-06T03:25:00;4.75;;;3.65;;
15635;SDS011;7917;50.818;6.972;2023-08-06T03:27:27;6.00;;;3.65;;
15635;SDS011;7917;50.818;6.972;2023-08-06T03:29:54;6.15;;;3.70;;
15635;SDS011;7917;50.818;6.972;2023-08-06T03:32:21;5.68;;;3.38;;
15635;SDS011;7917;50.818;6.972;2023-08-06T03:34:47;5.00;;;3.88;;
15635;SDS011;7917;50.818;6.972;2023-08-06T03:37:16;6.60;;;4.13;;
15635;SDS011;7917;50.818;6.972;2023-08-06T03:39:43;8.30;;;4.80;;
15635;SDS011;7917;50.818;6.972;2023-08-06T03:42:10;5.80;;;3.97;;
15635;SDS011;7917;50.818;6.972;2023-08-06T03:44:37;7.13;;;3.97;;
15635;SDS011;7917;50.818;6.972;2023-08-06T03:47:04;10.38;;;4.15;;
15635;SDS011;7917;50.818;6.972;2023-08-06T03:49:31;10.75;;;3.80;;
15635;SDS011;7917;50.818;6.972;2023-08-06T03:51:58;6.30;;;4.00;;
15635;SDS011;7917;50.818;6.972;2023-08-06T03:54:26;6.65;;;3.95;;
15635;SDS011;7917;50.818;6.972;2023-08-06T03:56:53;11.50;;;4.32;;
15635;SDS011;7917;50.818;6.972;2023-08-06T03:59:19;7.00;;;3.97;;
15635;SDS011;7917;50.818;6.972;2023-08-06T04:01:46;7.82;;;4.03;;
15635;SDS011;7917;50.818;6.972;2023-08-06T04:04:13;6.88;;;4.38;;
15635;SDS011;7917;50.818;6.972;2023-08-06T04:06:40;6.40;;;3.97;;
15635;SDS011;7917;50.818;6.972;2023-08-06T04:09:07;7.63;;;4.07;;
15635;SDS011;7917;50.818;6.972;2023-08-06T04:11:35;7.95;;;4.25;;
15635;SDS011;7917;50.818;6.972;2023-08-06T04:14:01;6.25;;;4.05;;
15635;SDS011;7917;50.818;6.972;2023-08-06T04:16:28;8.40;;;3.65;;
15635;SDS011;7917;50.818;6.972;2023-08-06T04:18:55;7.40;;;4.43;;
15635;SDS011;7917;50.818;6.972;2023-08-06T04:21:21;4.68;;;4.20;;
15635;SDS011;7917;50.818;6.972;2023-08-06T04:23:48;9.20;;;4.55;;
15635;SDS011;7917;50.818;6.972;2023-08-06T04:26:16;8.07;;;4.63;;
15635;SDS011;7917;50.818;6.972;2023-08-06T04:28:43;6.13;;;4.05;;
15635;SDS011;7917;50.818;6.972;2023-08-06T04:31:10;6.13;;;4.40;;
15635;SDS011;7917;50.818;6.972;2023-08-06T04:33:37;6.22;;;3.88;;
15635;SDS011;7917;50.818;6.972;2023-08-06T04:36:04;8.75;;;4.47;;
15635;SDS011;7917;50.818;6.972;2023-08-06T04:38:31;6.85;;;4.20;;
15635;SDS011;7917;50.818;6.972;2023-08-06T04:40:58;5.75;;;3.83;;
15635;SDS011;7917;50.818;6.972;2023-08-06T04:43:24;7.72;;;3.88;;
15635;SDS011;7917;50.818;6.972;2023-08-06T04:45:53;7.20;;;3.90;;
15635;SDS011;7917;50.818;6.972;2023-08-06T04:48:20;9.38;;;4.28;;
15635;SDS011;7917;50.818;6.972;2023-08-06T04:50:48;5.82;;;3.83;;
15635;SDS011;7917;50.818;6.972;2023-08-06T04:53:16;6.07;;;3.83;;
15635;SDS011;7917;50.818;6.972;2023-08-06T04:55:43;5.95;;;3.88;;
15635;SDS011;7917;50.818;6.972;2023-08-06T04:58:10;7.65;;;3.80;;
15635;SDS011;7917;50.818;6.972;2023-08-06T05:00:39;7.50;;;4.20;;
15635;SDS011;7917;50.818;6.972;2023-08-06T05:03:06;6.00;;;3.47;;
15635;SDS011;7917;50.818;6.972;2023-08-06T05:05:33;5.75;;;3.92;;
15635;SDS011;7917;50.818;6.972;2023-08-06T05:08:00;5.40;;;3.20;;
15635;SDS011;7917;50.818;6.972;2023-08-06T05:10:27;13.43;;;3.15;;
15635;SDS011;7917;50.818;6.972;2023-08-06T05:12:54;7.10;;;3.10;;
15635;SDS011;7917;50.818;6.972;2023-08-06T05:15:21;5.38;;;3.17;;
15635;SDS011;7917;50.818;6.972;2023-08-06T05:17:53;5.07;;;2.92;;
15635;SDS011;7917;50.818;6.972;2023-08-06T05:20:23;7.53;;;2.60;;
15635;SDS011;7917;50.818;6.972;2023-08-06T05:22:50;4.80;;;2.53;;
15635;SDS011;7917;50.818;6.972;2023-08-06T05:25:17;4.95;;;2.90;;
15635;SDS011;7917;50.818;6.972;2023-08-06T05:27:44;3.63;;;2.95;;
15635;SDS011;7917;50.818;6.972;2023-08-06T05:30:11;4.57;;;2.40;;
15635;SDS011;7917;50.818;6.972;2023-08-06T05:32:38;5.05;;;2.50;;
15635;SDS011;7917;50.818;6.972;2023-08-06T05:35:05;3.75;;;2.50;;
15635;SDS011;7917;50.818;6.972;2023-08-06T05:37:33;3.92;;;2.10;;
15635;SDS011;7917;50.818;6.972;2023-08-06T05:40:01;4.78;;;2.17;;
15635;SDS011;7917;50.818;6.972;2023-08-06T05:42:29;3.50;;;1.92;;
15635;SDS011;7917;50.818;6.972;2023-08-06T05:44:56;8.45;;;2.38;;
15635;SDS011;7917;50.818;6.972;2023-08-06T05:47:23;2.30;;;2.10;;
15635;SDS011;7917;50.818;6.972;2023-08-06T05:49:50;4.18;;;2.47;;
15635;SDS011;7917;50.818;6.972;2023-08-06T05:52:17;5.55;;;2.08;;
15635;SDS011;7917;50.818;6.972;2023-08-06T05:54:44;6.88;;;1.80;;
15635;SDS011;7917;50.818;6.972;2023-08-06T05:57:11;4.57;;;1.75;;
15635;SDS011;7917;50.818;6.972;2023-08-06T05:59:38;2.63;;;1.80;;
15635;SDS011;7917;50.818;6.972;2023-08-06T06:02:06;3.15;;;1.95;;
15635;SDS011;7917;50.818;6.972;2023-08-06T06:04:33;2.47;;;1.55;;
15635;SDS011;7917;50.818;6.972;2023-08-06T06:07:00;4.68;;;1.60;;
15635;SDS011;7917;50.818;6.972;2023-08-06T06:09:27;3.72;;;1.33;;
15635;SDS011;7917;50.818;6.972;2023-08-06T06:11:55;4.40;;;1.48;;
15635;SDS011;7917;50.818;6.972;2023-08-06T06:14:21;2.28;;;1.45;;
15635;SDS011;7917;50.818;6.972;2023-08-06T06:16:49;2.58;;;1.33;;
15635;SDS011;7917;50.818;6.972;2023-08-06T06:19:18;1.52;;;1.30;;
15635;SDS011;7917;50.818;6.972;2023-08-06T06:21:45;1.80;;;1.27;;
15635;SDS011;7917;50.818;6.972;2023-08-06T06:24:12;3.05;;;1.65;;
15635;SDS011;7917;50.818;6.972;2023-08-06T06:26:38;2.13;;;1.50;;
15635;SDS011;7917;50.818;6.972;2023-08-06T06:29:06;4.97;;;1.50;;
15635;SDS011;7917;50.818;6.972;2023-08-06T06:31:34;5.03;;;1.60;;
15635;SDS011;7917;50.818;6.972;2023-08-06T06:34:00;3.17;;;1.52;;
15635;SDS011;7917;50.818;6.972;2023-08-06T06:36:27;2.33;;;1.52;;
15635;SDS011;7917;50.818;6.972;2023-08-06T06:38:55;4.00;;;1.63;;
15635;SDS011;7917;50.818;6.972;2023-08-06T06:41:22;4.97;;;1.70;;
15635;SDS011;7917;50.818;6.972;2023-08-06T06:43:49;2.70;;;1.23;;
15635;SDS011;7917;50.818;6.972;2023-08-06T06:46:17;2.50;;;1.25;;
15635;SDS011;7917;50.818;6.972;2023-08-06T06:48:45;4.82;;;1.45;;
15635;SDS011;7917;50.818;6.972;2023-08-06T06:51:15;2.55;;;1.50;;
15635;SDS011;7917;50.818;6.972;2023-08-06T06:53:42;3.90;;;1.52;;
15635;SDS011;7917;50.818;6.972;2023-08-06T06:56:09;2.65;;;1.92;;
15635;SDS011;7917;50.818;6.972;2023-08-06T06:58:35;1.95;;;1.42;;
15635;SDS011;7917;50.818;6.972;2023-08-06T07:01:05;4.70;;;2.00;;
15635;SDS011;7917;50.818;6.972;2023-08-06T07:03:32;2.90;;;1.60;;
15635;SDS011;7917;50.818;6.972;2023-08-06T07:05:59;2.38;;;1.50;;
15635;SDS011;7917;50.818;6.972;2023-08-06T07:08:25;2.78;;;1.50;;
15635;SDS011;7917;50.818;6.972;2023-08-06T07:10:59;5.18;;;1.77;;
15635;SDS011;7917;50.818;6.972;2023-08-06T07:13:27;3.63;;;1.58;;
15635;SDS011;7917;50.818;6.972;2023-08-06T07:15:57;4.70;;;1.80;;
15635;SDS011;7917;50.818;6.972;2023-08-06T07:18:24;3.88;;;1.65;;
15635;SDS011;7917;50.818;6.972;2023-08-06T07:20:53;3.38;;;1.77;;
15635;SDS011;7917;50.818;6.972;2023-08-06T07:23:20;2.78;;;1.50;;
15635;SDS011;7917;50.818;6.972;2023-08-06T07:25:49;3.88;;;2.00;;
15635;SDS011;7917;50.818;6.972;2023-08-06T07:28:15;2.63;;;1.77;;
15635;SDS011;7917;50.818;6.972;2023-08-06T07:30:43;2.40;;;1.75;;
15635;SDS011;7917;50.818;6.972;2023-08-06T07:33:11;2.20;;;1.92;;
15635;SDS011;7917;50.818;6.972;2023-08-06T07:35:39;5.00;;;2.30;;
15635;SDS011;7917;50.818;6.972;2023-08-06T07:38:07;2.83;;;2.00;;
15635;SDS011;7917;50.818;6.972;2023-08-06T07:40:35;5.13;;;3.13;;
15635;SDS011;7917;50.818;6.972;2023-08-06T07:43:03;3.35;;;2.05;;
15635;SDS011;7917;50.818;6.972;2023-08-06T07:45:32;4.82;;;2.13;;
15635;SDS011;7917;50.818;6.972;2023-08-06T07:48:00;3.25;;;1.88;;
15635;SDS011;7917;50.818;6.972;2023-08-06T07:50:31;2.15;;;1.88;;
15635;SDS011;7917;50.818;6.972;2023-08-06T07:52:58;3.55;;;2.00;;
15635;SDS011;7917;50.818;6.972;2023-08-06T07:55:25;4.60;;;2.58;;
15635;SDS011;7917;50.818;6.972;2023-08-06T07:57:53;4.22;;;2.40;;
15635;SDS011;7917;50.818;6.972;2023-08-06T08:00:20;11.73;;;2.80;;
15635;SDS011;7917;50.818;6.972;2023-08-06T08:02:47;5.25;;;2.15;;
15635;SDS011;7917;50.818;6.972;2023-08-06T08:05:14;5.40;;;2.88;;
15635;SDS011;7917;50.818;6.972;2023-08-06T08:07:41;5.68;;;3.20;;
15635;SDS011;7917;50.818;6.972;2023-08-06T08:10:09;6.07;;;3.15;;
15635;SDS011;7917;50.818;6.972;2023-08-06T08:12:37;3.05;;;2.78;;
15635;SDS011;7917;50.818;6.972;2023-08-06T08:15:04;3.65;;;3.00;;
15635;SDS011;7917;50.818;6.972;2023-08-06T08:17:32;5.85;;;3.13;;
15635;SDS011;7917;50.818;6.972;2023-08-06T08:19:59;3.13;;;2.83;;
15635;SDS011;7917;50.818;6.972;2023-08-06T08:22:26;8.25;;;3.30;;
15635;SDS011;7917;50.818;6.972;2023-08-06T08:24:54;3.45;;;2.67;;
15635;SDS011;7917;50.818;6.972;2023-08-06T08:27:21;4.55;;;2.90;;
15635;SDS011;7917;50.818;6.972;2023-08-06T08:29:49;7.95;;;2.80;;
15635;SDS011;7917;50.818;6.972;2023-08-06T08:32:17;4.55;;;3.28;;
15635;SDS011;7917;50.818;6.972;2023-08-06T08:34:44;2.58;;;2.38;;
15635;SDS011;7917;50.818;6.972;2023-08-06T08:37:11;2.40;;;2.20;;
15635;SDS011;7917;50.818;6.972;2023-08-06T08:39:39;2.78;;;2.45;;
15635;SDS011;7917;50.818;6.972;2023-08-06T08:42:06;4.68;;;2.65;;
15635;SDS011;7917;50.818;6.972;2023-08-06T08:44:33;5.82;;;2.40;;
15635;SDS011;7917;50.818;6.972;2023-08-06T08:47:05;2.10;;;1.90;;
15635;SDS011;7917;50.818;6.972;2023-08-06T08:49:33;3.42;;;2.00;;
15635;SDS011;7917;50.818;6.972;2023-08-06T08:52:01;1.92;;;1.80;;
15635;SDS011;7917;50.818;6.972;2023-08-06T08:54:31;2.03;;;1.65;;
15635;SDS011;7917;50.818;6.972;2023-08-06T08:57:00;1.90;;;1.80;;
15635;SDS011;7917;50.818;6.972;2023-08-06T08:59:27;1.33;;;1.23;;
15635;SDS011;7917;50.818;6.972;2023-08-06T09:01:55;1.20;;;1.10;;
15635;SDS011;7917;50.818;6.972;2023-08-06T09:04:23;1.38;;;1.27;;
15635;SDS011;7917;50.818;6.972;2023-08-06T09:06:52;1.20;;;1.10;;
15635;SDS011;7917;50.818;6.972;2023-08-06T09:09:21;3.28;;;1.02;;
15635;SDS011;7917;50.818;6.972;2023-08-06T09:11:51;1.20;;;1.00;;
15635;SDS011;7917;50.818;6.972;2023-08-06T09:14:21;2.22;;;1.00;;
15635;SDS011;7917;50.818;6.972;2023-08-06T09:16:48;1.17;;;0.90;;
15635;SDS011;7917;50.818;6.972;2023-08-06T09:19:15;1.25;;;0.73;;
15635;SDS011;7917;50.818;6.972;2023-08-06T09:21:45;2.42;;;0.70;;
15635;SDS011;7917;50.818;6.972;2023-08-06T09:24:14;0.82;;;0.82;;
15635;SDS011;7917;50.818;6.972;2023-08-06T09:26:42;0.40;;;0.40;;
15635;SDS011;7917;50.818;6.972;2023-08-06T09:29:11;0.98;;;0.80;;
15635;SDS011;7917;50.818;6.972;2023-08-06T09:31:40;0.90;;;0.60;;
15635;SDS011;7917;50.818;6.972;2023-08-06T09:34:11;1.10;;;0.50;;
15635;SDS011;7917;50.818;6.972;2023-08-06T09:36:41;1.73;;;0.60;;
15635;SDS011;7917;50.818;6.972;2023-08-06T09:39:14;2.95;;;1.55;;
15635;SDS011;7917;50.818;6.972;2023-08-06T09:41:42;2.05;;;0.50;;
15635;SDS011;7917;50.818;6.972;2023-08-06T09:44:15;1.27;;;0.50;;
15635;SDS011;7917;50.818;6.972;2023-08-06T09:46:46;2.40;;;0.55;;
15635;SDS011;7917;50.818;6.972;2023-08-06T09:49:14;2.03;;;0.80;;
15635;SDS011;7917;50.818;6.972;2023-08-06T09:51:41;0.73;;;0.50;;
15635;SDS011;7917;50.818;6.972;2023-08-06T09:54:10;1.25;;;0.50;;
15635;SDS011;7917;50.818;6.972;2023-08-06T09:56:40;0.85;;;0.60;;
15635;SDS011;7917;50.818;6.972;2023-08-06T09:59:08;1.75;;;0.55;;
15635;SDS011;7917;50.818;6.972;2023-08-06T10:01:36;0.70;;;0.50;;
15635;SDS011;7917;50.818;6.972;2023-08-06T10:04:03;5.65;;;0.70;;
15635;SDS011;7917;50.818;6.972;2023-08-06T10:06:34;5.10;;;0.85;;
15635;SDS011;7917;50.818;6.972;2023-08-06T10:09:02;2.67;;;0.55;;
15635;SDS011;7917;50.818;6.972;2023-08-06T10:11:29;2.58;;;0.80;;
15635;SDS011;7917;50.818;6.972;2023-08-06T10:14:00;1.50;;;0.70;;
15635;SDS011;7917;50.818;6.972;2023-08-06T10:16:31;4.03;;;0.77;;
15635;SDS011;7917;50.818;6.972;2023-08-06T10:19:00;2.58;;;0.90;;
15635;SDS011;7917;50.818;6.972;2023-08-06T10:21:30;1.45;;;0.90;;
15635;SDS011;7917;50.818;6.972;2023-08-06T10:23:57;2.80;;;1.10;;
15635;SDS011;7917;50.818;6.972;2023-08-06T10:26:26;5.40;;;1.20;;
15635;SDS011;7917;50.818;6.972;2023-08-06T10:28:54;3.65;;;1.50;;
15635;SDS011;7917;50.818;6.972;2023-08-06T10:31:35;2.28;;;1.63;;
15635;SDS011;7917;50.818;6.972;2023-08-06T10:34:20;4.63;;;2.25;;
15635;SDS011;7917;50.818;6.972;2023-08-06T10:36:47;3.08;;;2.60;;
15635;SDS011;7917;50.818;6.972;2023-08-06T10:39:14;2.97;;;2.70;;
15635;SDS011;7917;50.818;6.972;2023-08-06T10:41:42;3.33;;;2.65;;
15635;SDS011;7917;50.818;6.972;2023-08-06T10:44:10;4.00;;;2.20;;
15635;SDS011;7917;50.818;6.972;2023-08-06T10:46:37;5.00;;;3.20;;
15635;SDS011;7917;50.818;6.972;2023-08-06T10:49:05;5.15;;;3.15;;
15635;SDS011;7917;50.818;6.972;2023-08-06T10:51:32;4.95;;;2.78;;
15635;SDS011;7917;50.818;6.972;2023-08-06T10:54:01;4.65;;;2.80;;
15635;SDS011;7917;50.818;6.972;2023-08-06T10:56:29;4.93;;;2.97;;
15635;SDS011;7917;50.818;6.972;2023-08-06T10:58:57;6.35;;;2.70;;
15635;SDS011;7917;50.818;6.972;2023-08-06T11:01:26;4.95;;;3.20;;
15635;SDS011;7917;50.818;6.972;2023-08-06T11:03:55;8.40;;;3.10;;
15635;SDS011;7917;50.818;6.972;2023-08-06T11:06:22;6.70;;;2.50;;
15635;SDS011;7917;50.818;6.972;2023-08-06T11:08:50;8.38;;;2.33;;
15635;SDS011;7917;50.818;6.972;2023-08-06T11:11:18;5.90;;;2.63;;
15635;SDS011;7917;50.818;6.972;2023-08-06T11:13:46;4.78;;;2.03;;
15635;SDS011;7917;50.818;6.972;2023-08-06T11:16:16;5.05;;;2.67;;
15635;SDS011;7917;50.818;6.972;2023-08-06T11:18:44;6.00;;;2.30;;
15635;SDS011;7917;50.818;6.972;2023-08-06T11:21:12;3.97;;;1.95;;
15635;SDS011;7917;50.818;6.972;2023-08-06T11:23:40;9.40;;;2.25;;
15635;SDS011;7917;50.818;6.972;2023-08-06T11:26:08;4.28;;;1.88;;
15635;SDS011;7917;50.818;6.972;2023-08-06T11:28:35;6.13;;;1.63;;
15635;SDS011;7917;50.818;6.972;2023-08-06T11:31:02;8.23;;;1.98;;
15635;SDS011;7917;50.818;6.972;2023-08-06T11:33:30;8.98;;;3.28;;
15635;SDS011;7917;50.818;6.972;2023-08-06T11:35:58;7.57;;;2.78;;
15635;SDS011;7917;50.818;6.972;2023-08-06T11:38:25;6.63;;;2.45;;
15635;SDS011;7917;50.818;6.972;2023-08-06T11:40:53;8.02;;;2.42;;
15635;SDS011;7917;50.818;6.972;2023-08-06T11:43:22;6.85;;;2.25;;
15635;SDS011;7917;50.818;6.972;2023-08-06T11:45:49;6.57;;;1.95;;
15635;SDS011;7917;50.818;6.972;2023-08-06T11:48:17;7.63;;;2.55;;
15635;SDS011;7917;50.818;6.972;2023-08-06T11:50:45;5.95;;;1.80;;
15635;SDS011;7917;50.818;6.972;2023-08-06T11:53:13;6.88;;;2.45;;
15635;SDS011;7917;50.818;6.972;2023-08-06T11:55:40;5.53;;;1.70;;
15635;SDS011;7917;50.818;6.972;2023-08-06T11:58:08;3.50;;;1.83;;
15635;SDS011;7917;50.818;6.972;2023-08-06T12:00:36;4.25;;;1.90;;
15635;SDS011;7917;50.818;6.972;2023-08-06T12:03:04;5.90;;;2.60;;
15635;SDS011;7917;50.818;6.972;2023-08-06T12:05:32;5.47;;;1.85;;
15635;SDS011;7917;50.818;6.972;2023-08-06T12:08:00;4.13;;;2.10;;
15635;SDS011;7917;50.818;6.972;2023-08-06T12:10:28;4.75;;;2.22;;
15635;SDS011;7917;50.818;6.972;2023-08-06T12:12:57;8.98;;;2.45;;
15635;SDS011;7917;50.818;6.972;2023-08-06T12:15:24;5.78;;;2.60;;
15635;SDS011;7917;50.818;6.972;2023-08-06T12:17:51;9.15;;;2.17;;
15635;SDS011;7917;50.818;6.972;2023-08-06T12:20:19;6.65;;;2.30;;
15635;SDS011;7917;50.818;6.972;2023-08-06T12:22:46;6.80;;;2.40;;
15635;SDS011;7917;50.818;6.972;2023-08-06T12:25:14;4.45;;;2.17;;
15635;SDS011;7917;50.818;6.972;2023-08-06T12:27:41;5.05;;;2.03;;
15635;SDS011;7917;50.818;6.972;2023-08-06T12:30:09;5.10;;;1.98;;
15635;SDS011;7917;50.818;6.972;2023-08-06T12:32:37;6.43;;;1.73;;
15635;SDS011;7917;50.818;6.972;2023-08-06T12:35:05;7.15;;;2.75;;
15635;SDS011;7917;50.818;6.972;2023-08-06T12:37:34;5.22;;;2.15;;
15635;SDS011;7917;50.818;6.972;2023-08-06T12:40:02;3.88;;;1.95;;
15635;SDS011;7917;50.818;6.972;2023-08-06T12:42:30;5.65;;;2.17;;
15635;SDS011;7917;50.818;6.972;2023-08-06T12:44:57;5.47;;;1.60;;
15635;SDS011;7917;50.818;6.972;2023-08-06T12:47:24;3.17;;;1.70;;
15635;SDS011;7917;50.818;6.972;2023-08-06T12:49:51;2.35;;;1.52;;
15635;SDS011;7917;50.818;6.972;2023-08-06T12:52:19;3.75;;;1.50;;
15635;SDS011;7917;50.818;6.972;2023-08-06T12:54:46;3.72;;;1.65;;
15635;SDS011;7917;50.818;6.972;2023-08-06T12:57:13;1.38;;;0.80;;
15635;SDS011;7917;50.818;6.972;2023-08-06T12:59:41;2.92;;;1.15;;
15635;SDS011;7917;50.818;6.972;2023-08-06T13:02:09;2.30;;;1.27;;
15635;SDS011;7917;50.818;6.972;2023-08-06T13:04:36;3.13;;;1.08;;
15635;SDS011;7917;50.818;6.972;2023-08-06T13:07:04;2.25;;;1.30;;
15635;SDS011;7917;50.818;6.972;2023-08-06T13:09:31;7.28;;;1.52;;
15635;SDS011;7917;50.818;6.972;2023-08-06T13:11:59;3.25;;;1.30;;
15635;SDS011;7917;50.818;6.972;2023-08-06T13:14:30;1.95;;;1.35;;
15635;SDS011;7917;50.818;6.972;2023-08-06T13:16:58;3.38;;;1.23;;
15635;SDS011;7917;50.818;6.972;2023-08-06T13:19:25;1.40;;;1.00;;
15635;SDS011;7917;50.818;6.972;2023-08-06T13:21:58;2.28;;;1.60;;
15635;SDS011;7917;50.818;6.972;2023-08-06T13:24:27;3.90;;;1.30;;
15635;SDS011;7917;50.818;6.972;2023-08-06T13:26:55;2.42;;;1.23;;
15635;SDS011;7917;50.818;6.972;2023-08-06T13:29:23;3.00;;;1.70;;
15635;SDS011;7917;50.818;6.972;2023-08-06T13:31:50;3.97;;;1.70;;
15635;SDS011;7917;50.818;6.972;2023-08-06T13:34:18;2.63;;;1.70;;
15635;SDS011;7917;50.818;6.972;2023-08-06T13:36:45;3.30;;;1.90;;
15635;SDS011;7917;50.818;6.972;2023-08-06T13:39:12;5.25;;;2.17;;
15635;SDS011;7917;50.818;6.972;2023-08-06T13:41:41;4.65;;;2.20;;
15635;SDS011;7917;50.818;6.972;2023-08-06T13:44:09;4.63;;;2.30;;
15635;SDS011;7917;50.818;6.972;2023-08-06T13:46:36;4.07;;;2.75;;
15635;SDS011;7917;50.818;6.972;2023-08-06T13:49:03;5.65;;;2.70;;
15635;SDS011;7917;50.818;6.972;2023-08-06T13:51:31;3.28;;;2.40;;
15635;SDS011;7917;50.818;6.972;2023-08-06T13:53:59;4.10;;;2.58;;
15635;SDS011;7917;50.818;6.972;2023-08-06T13:56:26;4.65;;;2.40;;
15635;SDS011;7917;50.818;6.972;2023-08-06T13:58:54;4.65;;;2.00;;
15635;SDS011;7917;50.818;6.972;2023-08-06T14:04:18;3.83;;;2.00;;
15635;SDS011;7917;50.818;6.972;2023-08-06T14:06:47;4.93;;;1.70;;
15635;SDS011;7917;50.818;6.972;2023-08-06T14:09:14;3.95;;;1.27;;
15635;SDS011;7917;50.818;6.972;2023-08-06T14:11:44;3.60;;;1.45;;
15635;SDS011;7917;50.818;6.972;2023-08-06T14:14:12;2.22;;;1.02;;
15635;SDS011;7917;50.818;6.972;2023-08-06T14:16:39;1.85;;;1.42;;
15635;SDS011;7917;50.818;6.972;2023-08-06T14:19:06;4.55;;;1.30;;
15635;SDS011;7917;50.818;6.972;2023-08-06T14:21:34;7.40;;;1.90;;
15635;SDS011;7917;50.818;6.972;2023-08-06T14:24:02;3.28;;;1.27;;
15635;SDS011;7917;50.818;6.972;2023-08-06T14:26:29;4.55;;;1.17;;
15635;SDS011;7917;50.818;6.972;2023-08-06T14:28:56;3.75;;;1.13;;
15635;SDS011;7917;50.818;6.972;2023-08-06T14:31:23;4.93;;;1.10;;
15635;SDS011;7917;50.818;6.972;2023-08-06T14:33:52;4.60;;;1.13;;
15635;SDS011;7917;50.818;6.972;2023-08-06T14:36:20;4.20;;;1.40;;
15635;SDS011;7917;50.818;6.972;2023-08-06T14:38:47;7.25;;;1.40;;
15635;SDS011;7917;50.818;6.972;2023-08-06T14:41:15;4.65;;;1.33;;
15635;SDS011;7917;50.818;6.972;2023-08-06T14:43:44;21.15;;;2.30;;
15635;SDS011;7917;50.818;6.972;2023-08-06T14:46:11;2.45;;;1.05;;
15635;SDS011;7917;50.818;6.972;2023-08-06T14:48:38;4.10;;;1.00;;
15635;SDS011;7917;50.818;6.972;2023-08-06T14:51:05;2.42;;;0.90;;
15635;SDS011;7917;50.818;6.972;2023-08-06T14:53:32;1.90;;;1.00;;
15635;SDS011;7917;50.818;6.972;2023-08-06T14:56:00;2.47;;;0.85;;
15635;SDS011;7917;50.818;6.972;2023-08-06T14:58:28;3.13;;;0.90;;
15635;SDS011;7917;50.818;6.972;2023-08-06T15:00:56;1.55;;;0.80;;
15635;SDS011;7917;50.818;6.972;2023-08-06T15:03:23;1.38;;;0.70;;
15635;SDS011;7917;50.818;6.972;2023-08-06T15:05:52;0.90;;;0.60;;
15635;SDS011;7917;50.818;6.972;2023-08-06T15:11:23;1.67;;;0.60;;
15635;SDS011;7917;50.818;6.972;2023-08-06T15:13:51;1.77;;;0.60;;